sensor_id;sensor_type;location;lat;lon;timestamp;temperature;humidity
13322;DHT22;6730;46.248;6.930;2023-07-09T00:01:47;22.70;93.20
13322;DHT22;6730;46.248;6.930;2023-07-09T00:04:13;22.80;93.10
13322;DHT22;6730;46.248;6.930;2023-07-09T00:06:39;23.00;92.90
13322;DHT22;6730;46.248;6.930;2023-07-09T00:09:09;22.90;92.80
13322;DHT22;6730;46.248;6.930;2023-07-09T00:11:37;22.70;92.80
13322;DHT22;6730;46.248;6.930;2023-07-09T00:14:05;22.50;93.00
13322;DHT22;6730;46.248;6.930;2023-07-09T00:16:31;22.40;93.00
13322;DHT22;6730;46.248;6.930;2023-07-09T00:18:57;22.40;93.20
13322;DHT22;6730;46.248;6.930;2023-07-09T00:21:22;22.30;93.20
13322;DHT22;6730;46.248;6.930;2023-07-09T00:23:49;22.30;93.20
13322;DHT22;6730;46.248;6.930;2023-07-09T00:26:16;22.30;93.30
13322;DHT22;6730;46.248;6.930;2023-07-09T00:28:43;22.30;93.20
13322;DHT22;6730;46.248;6.930;2023-07-09T00:31:14;22.40;92.90
13322;DHT22;6730;46.248;6.930;2023-07-09T00:33:41;22.70;92.80
13322;DHT22;6730;46.248;6.930;2023-07-09T00:36:15;22.70;92.80
13322;DHT22;6730;46.248;6.930;2023-07-09T00:38:41;22.50;92.90
13322;DHT22;6730;46.248;6.930;2023-07-09T00:41:18;22.20;93.20
13322;DHT22;6730;46.248;6.930;2023-07-09T00:43:46;22.20;93.20
13322;DHT22;6730;46.248;6.930;2023-07-09T00:48:50;22.30;93.00
13322;DHT22;6730;46.248;6.930;2023-07-09T00:51:20;22.20;93.10
13322;DHT22;6730;46.248;6.930;2023-07-09T00:53:46;22.20;93.10
13322;DHT22;6730;46.248;6.930;2023-07-09T00:59:01;22.20;93.10
13322;DHT22;6730;46.248;6.930;2023-07-09T01:01:31;22.30;93.00
13322;DHT22;6730;46.248;6.930;2023-07-09T01:03:58;22.30;93.00
13322;DHT22;6730;46.248;6.930;2023-07-09T01:06:31;22.20;93.00
13322;DHT22;6730;46.248;6.930;2023-07-09T01:09:02;22.20;93.10
13322;DHT22;6730;46.248;6.930;2023-07-09T01:11:28;22.00;93.30
13322;DHT22;6730;46.248;6.930;2023-07-09T01:14:03;22.00;93.40
13322;DHT22;6730;46.248;6.930;2023-07-09T01:16:32;22.00;93.30
13322;DHT22;6730;46.248;6.930;2023-07-09T01:18:59;22.20;93.20
13322;DHT22;6730;46.248;6.930;2023-07-09T01:21:26;22.20;93.10
13322;DHT22;6730;46.248;6.930;2023-07-09T01:23:52;22.10;93.30
13322;DHT22;6730;46.248;6.930;2023-07-09T01:26:23;21.90;93.50
13322;DHT22;6730;46.248;6.930;2023-07-09T01:28:51;22.20;93.10
13322;DHT22;6730;46.248;6.930;2023-07-09T01:31:17;22.20;93.10
13322;DHT22;6730;46.248;6.930;2023-07-09T01:33:43;22.20;93.10
13322;DHT22;6730;46.248;6.930;2023-07-09T01:36:12;22.50;92.80
13322;DHT22;6730;46.248;6.930;2023-07-09T01:38:39;22.50;92.80
13322;DHT22;6730;46.248;6.930;2023-07-09T01:41:05;22.50;92.70
13322;DHT22;6730;46.248;6.930;2023-07-09T01:43:31;22.60;92.80
13322;DHT22;6730;46.248;6.930;2023-07-09T01:45:57;22.70;92.60
13322;DHT22;6730;46.248;6.930;2023-07-09T01:48:25;22.40;93.00
13322;DHT22;6730;46.248;6.930;2023-07-09T01:50:52;22.50;92.90
13322;DHT22;6730;46.248;6.930;2023-07-09T01:53:21;22.60;92.70
13322;DHT22;6730;46.248;6.930;2023-07-09T01:55:52;22.70;92.60
13322;DHT22;6730;46.248;6.930;2023-07-09T01:58:20;22.70;92.60
13322;DHT22;6730;46.248;6.930;2023-07-09T02:00:50;22.50;92.80
13322;DHT22;6730;46.248;6.930;2023-07-09T02:03:16;22.50;92.80
13322;DHT22;6730;46.248;6.930;2023-07-09T02:05:43;22.30;92.80
13322;DHT22;6730;46.248;6.930;2023-07-09T02:08:09;22.10;93.00
13322;DHT22;6730;46.248;6.930;2023-07-09T02:10:34;22.00;93.00
13322;DHT22;6730;46.248;6.930;2023-07-09T02:13:00;22.00;93.00
13322;DHT22;6730;46.248;6.930;2023-07-09T02:15:26;21.90;93.20
13322;DHT22;6730;46.248;6.930;2023-07-09T02:17:51;22.10;92.70
13322;DHT22;6730;46.248;6.930;2023-07-09T02:20:18;22.00;92.90
13322;DHT22;6730;46.248;6.930;2023-07-09T02:22:44;22.00;93.00
13322;DHT22;6730;46.248;6.930;2023-07-09T02:25:10;22.00;92.80
13322;DHT22;6730;46.248;6.930;2023-07-09T02:27:37;21.90;93.00
13322;DHT22;6730;46.248;6.930;2023-07-09T02:30:04;21.80;93.10
13322;DHT22;6730;46.248;6.930;2023-07-09T02:32:30;21.70;93.30
13322;DHT22;6730;46.248;6.930;2023-07-09T02:34:55;21.70;93.20
13322;DHT22;6730;46.248;6.930;2023-07-09T02:37:25;21.90;92.90
13322;DHT22;6730;46.248;6.930;2023-07-09T02:39:52;22.20;92.60
13322;DHT22;6730;46.248;6.930;2023-07-09T02:42:19;22.50;92.20
13322;DHT22;6730;46.248;6.930;2023-07-09T02:44:45;22.40;92.10
13322;DHT22;6730;46.248;6.930;2023-07-09T02:47:11;22.20;92.50
13322;DHT22;6730;46.248;6.930;2023-07-09T02:49:38;22.10;92.50
13322;DHT22;6730;46.248;6.930;2023-07-09T02:52:04;22.10;92.50
13322;DHT22;6730;46.248;6.930;2023-07-09T02:54:30;21.90;92.50
13322;DHT22;6730;46.248;6.930;2023-07-09T02:56:56;21.70;92.70
13322;DHT22;6730;46.248;6.930;2023-07-09T02:59:21;21.60;92.90
13322;DHT22;6730;46.248;6.930;2023-07-09T03:01:47;21.70;92.90
13322;DHT22;6730;46.248;6.930;2023-07-09T03:04:14;21.80;92.70
13322;DHT22;6730;46.248;6.930;2023-07-09T03:06:40;21.90;92.40
13322;DHT22;6730;46.248;6.930;2023-07-09T03:09:06;22.00;92.30
13322;DHT22;6730;46.248;6.930;2023-07-09T03:11:33;21.90;92.40
13322;DHT22;6730;46.248;6.930;2023-07-09T03:14:00;22.10;92.10
13322;DHT22;6730;46.248;6.930;2023-07-09T03:16:28;22.30;91.80
13322;DHT22;6730;46.248;6.930;2023-07-09T03:18:54;22.30;91.80
13322;DHT22;6730;46.248;6.930;2023-07-09T03:21:20;22.20;91.80
13322;DHT22;6730;46.248;6.930;2023-07-09T03:23:46;22.10;91.80
13322;DHT22;6730;46.248;6.930;2023-07-09T03:26:12;21.90;91.90
13322;DHT22;6730;46.248;6.930;2023-07-09T03:28:38;21.90;91.90
13322;DHT22;6730;46.248;6.930;2023-07-09T03:31:03;21.80;91.90
13322;DHT22;6730;46.248;6.930;2023-07-09T03:33:29;21.70;92.10
13322;DHT22;6730;46.248;6.930;2023-07-09T03:35:55;21.50;92.30
13322;DHT22;6730;46.248;6.930;2023-07-09T03:38:21;21.50;92.30
13322;DHT22;6730;46.248;6.930;2023-07-09T03:40:53;21.70;92.40
13322;DHT22;6730;46.248;6.930;2023-07-09T03:43:20;21.90;92.10
13322;DHT22;6730;46.248;6.930;2023-07-09T03:45:46;22.10;92.00
13322;DHT22;6730;46.248;6.930;2023-07-09T03:48:14;22.20;91.80
13322;DHT22;6730;46.248;6.930;2023-07-09T03:50:41;22.20;91.70
13322;DHT22;6730;46.248;6.930;2023-07-09T03:53:08;22.20;91.60
13322;DHT22;6730;46.248;6.930;2023-07-09T03:55:34;22.30;91.40
13322;DHT22;6730;46.248;6.930;2023-07-09T03:58:00;22.20;91.30
13322;DHT22;6730;46.248;6.930;2023-07-09T04:00:28;21.90;91.60
13322;DHT22;6730;46.248;6.930;2023-07-09T04:02:54;21.90;91.50
13322;DHT22;6730;46.248;6.930;2023-07-09T04:05:22;21.90;91.50
13322;DHT22;6730;46.248;6.930;2023-07-09T04:07:48;21.80;91.80
13322;DHT22;6730;46.248;6.930;2023-07-09T04:10:14;21.70;92.10
13322;DHT22;6730;46.248;6.930;2023-07-09T04:12:40;21.80;92.00
13322;DHT22;6730;46.248;6.930;2023-07-09T04:15:06;22.00;91.90
13322;DHT22;6730;46.248;6.930;2023-07-09T04:17:32;22.10;91.70
13322;DHT22;6730;46.248;6.930;2023-07-09T04:19:58;22.10;91.60
13322;DHT22;6730;46.248;6.930;2023-07-09T04:22:24;22.20;91.40
13322;DHT22;6730;46.248;6.930;2023-07-09T04:24:50;22.20;91.40
13322;DHT22;6730;46.248;6.930;2023-07-09T04:27:18;22.10;91.60
13322;DHT22;6730;46.248;6.930;2023-07-09T04:29:43;22.20;91.60
13322;DHT22;6730;46.248;6.930;2023-07-09T04:32:13;22.20;91.90
13322;DHT22;6730;46.248;6.930;2023-07-09T04:34:40;22.10;92.00
13322;DHT22;6730;46.248;6.930;2023-07-09T04:37:10;22.10;92.40
13322;DHT22;6730;46.248;6.930;2023-07-09T04:39:36;22.00;93.10
13322;DHT22;6730;46.248;6.930;2023-07-09T04:42:02;22.20;92.30
13322;DHT22;6730;46.248;6.930;2023-07-09T04:44:28;22.50;92.00
13322;DHT22;6730;46.248;6.930;2023-07-09T04:46:54;22.70;92.50
13322;DHT22;6730;46.248;6.930;2023-07-09T04:49:19;22.80;92.10
13322;DHT22;6730;46.248;6.930;2023-07-09T04:51:45;22.90;92.10
13322;DHT22;6730;46.248;6.930;2023-07-09T04:54:11;22.90;93.00
13322;DHT22;6730;46.248;6.930;2023-07-09T04:56:36;23.10;92.00
13322;DHT22;6730;46.248;6.930;2023-07-09T04:59:03;23.30;92.10
13322;DHT22;6730;46.248;6.930;2023-07-09T05:01:28;23.40;92.00
13322;DHT22;6730;46.248;6.930;2023-07-09T05:03:55;23.50;92.30
13322;DHT22;6730;46.248;6.930;2023-07-09T05:06:21;23.60;92.40
13322;DHT22;6730;46.248;6.930;2023-07-09T05:08:47;23.60;92.50
13322;DHT22;6730;46.248;6.930;2023-07-09T05:11:14;23.80;92.60
13322;DHT22;6730;46.248;6.930;2023-07-09T05:13:40;23.90;93.00
13322;DHT22;6730;46.248;6.930;2023-07-09T05:16:05;23.60;94.70
13322;DHT22;6730;46.248;6.930;2023-07-09T05:18:31;23.30;95.40
13322;DHT22;6730;46.248;6.930;2023-07-09T05:20:57;23.30;95.30
13322;DHT22;6730;46.248;6.930;2023-07-09T05:23:24;23.30;94.70
13322;DHT22;6730;46.248;6.930;2023-07-09T05:25:56;23.70;93.60
13322;DHT22;6730;46.248;6.930;2023-07-09T05:28:22;24.30;92.90
13322;DHT22;6730;46.248;6.930;2023-07-09T05:30:48;24.60;92.10
13322;DHT22;6730;46.248;6.930;2023-07-09T05:33:13;24.70;92.40
13322;DHT22;6730;46.248;6.930;2023-07-09T05:35:39;24.50;92.20
13322;DHT22;6730;46.248;6.930;2023-07-09T05:38:05;24.50;92.70
13322;DHT22;6730;46.248;6.930;2023-07-09T05:40:30;24.50;93.10
13322;DHT22;6730;46.248;6.930;2023-07-09T05:42:56;24.50;91.70
13322;DHT22;6730;46.248;6.930;2023-07-09T05:45:22;24.60;92.40
13322;DHT22;6730;46.248;6.930;2023-07-09T05:47:47;25.10;92.10
13322;DHT22;6730;46.248;6.930;2023-07-09T05:50:13;25.50;92.20
13322;DHT22;6730;46.248;6.930;2023-07-09T05:52:38;25.80;91.20
13322;DHT22;6730;46.248;6.930;2023-07-09T05:55:05;26.10;90.50
13322;DHT22;6730;46.248;6.930;2023-07-09T05:57:31;26.50;90.70
13322;DHT22;6730;46.248;6.930;2023-07-09T05:59:56;26.60;89.80
13322;DHT22;6730;46.248;6.930;2023-07-09T06:02:22;26.20;91.30
13322;DHT22;6730;46.248;6.930;2023-07-09T06:04:48;25.80;91.60
13322;DHT22;6730;46.248;6.930;2023-07-09T06:07:15;25.40;91.40
13322;DHT22;6730;46.248;6.930;2023-07-09T06:09:41;25.60;92.70
13322;DHT22;6730;46.248;6.930;2023-07-09T06:12:07;25.80;92.00
13322;DHT22;6730;46.248;6.930;2023-07-09T06:14:34;26.00;91.10
13322;DHT22;6730;46.248;6.930;2023-07-09T06:17:00;26.10;90.90
13322;DHT22;6730;46.248;6.930;2023-07-09T06:19:26;26.30;91.20
13322;DHT22;6730;46.248;6.930;2023-07-09T06:21:52;26.30;90.50
13322;DHT22;6730;46.248;6.930;2023-07-09T06:24:17;26.40;90.30
13322;DHT22;6730;46.248;6.930;2023-07-09T06:26:43;26.70;91.20
13322;DHT22;6730;46.248;6.930;2023-07-09T06:29:09;27.00;90.60
13322;DHT22;6730;46.248;6.930;2023-07-09T06:31:35;27.00;87.60
13322;DHT22;6730;46.248;6.930;2023-07-09T06:34:02;27.30;90.40
13322;DHT22;6730;46.248;6.930;2023-07-09T06:36:28;27.30;90.70
13322;DHT22;6730;46.248;6.930;2023-07-09T06:38:54;27.40;91.10
13322;DHT22;6730;46.248;6.930;2023-07-09T06:41:20;27.40;90.00
13322;DHT22;6730;46.248;6.930;2023-07-09T06:43:46;27.30;90.60
13322;DHT22;6730;46.248;6.930;2023-07-09T06:46:14;27.50;88.40
13322;DHT22;6730;46.248;6.930;2023-07-09T06:48:40;27.70;89.60
13322;DHT22;6730;46.248;6.930;2023-07-09T06:51:05;28.00;90.30
13322;DHT22;6730;46.248;6.930;2023-07-09T06:53:31;27.90;90.30
13322;DHT22;6730;46.248;6.930;2023-07-09T06:55:57;27.80;90.00
13322;DHT22;6730;46.248;6.930;2023-07-09T06:58:28;28.00;90.40
13322;DHT22;6730;46.248;6.930;2023-07-09T07:00:54;28.20;89.90
13322;DHT22;6730;46.248;6.930;2023-07-09T07:03:21;28.60;89.30
13322;DHT22;6730;46.248;6.930;2023-07-09T07:05:50;28.70;88.20
13322;DHT22;6730;46.248;6.930;2023-07-09T07:08:17;28.90;89.00
13322;DHT22;6730;46.248;6.930;2023-07-09T07:10:44;28.50;87.50
13322;DHT22;6730;46.248;6.930;2023-07-09T07:13:12;28.50;89.20
13322;DHT22;6730;46.248;6.930;2023-07-09T07:15:39;28.20;87.60
13322;DHT22;6730;46.248;6.930;2023-07-09T07:18:05;28.40;89.20
13322;DHT22;6730;46.248;6.930;2023-07-09T07:20:32;28.70;87.20
13322;DHT22;6730;46.248;6.930;2023-07-09T07:22:58;28.30;90.60
13322;DHT22;6730;46.248;6.930;2023-07-09T07:25:24;28.50;89.80
13322;DHT22;6730;46.248;6.930;2023-07-09T07:27:50;29.00;89.60
13322;DHT22;6730;46.248;6.930;2023-07-09T07:30:17;28.90;87.70
13322;DHT22;6730;46.248;6.930;2023-07-09T07:32:47;29.00;88.00
13322;DHT22;6730;46.248;6.930;2023-07-09T07:35:14;29.50;88.10
13322;DHT22;6730;46.248;6.930;2023-07-09T07:37:43;29.70;88.10
13322;DHT22;6730;46.248;6.930;2023-07-09T07:40:09;29.30;86.80
13322;DHT22;6730;46.248;6.930;2023-07-09T07:42:36;28.70;86.40
13322;DHT22;6730;46.248;6.930;2023-07-09T07:45:02;28.70;91.20
13322;DHT22;6730;46.248;6.930;2023-07-09T07:47:29;29.30;88.70
13322;DHT22;6730;46.248;6.930;2023-07-09T07:49:56;29.80;87.40
13322;DHT22;6730;46.248;6.930;2023-07-09T07:52:23;30.10;87.00
13322;DHT22;6730;46.248;6.930;2023-07-09T07:54:49;30.20;87.30
13322;DHT22;6730;46.248;6.930;2023-07-09T07:57:15;30.00;86.30
13322;DHT22;6730;46.248;6.930;2023-07-09T07:59:41;29.80;86.40
13322;DHT22;6730;46.248;6.930;2023-07-09T08:02:10;29.90;89.40
13322;DHT22;6730;46.248;6.930;2023-07-09T08:04:37;29.50;85.50
13322;DHT22;6730;46.248;6.930;2023-07-09T08:07:03;29.40;88.20
13322;DHT22;6730;46.248;6.930;2023-07-09T08:09:29;30.10;89.70
13322;DHT22;6730;46.248;6.930;2023-07-09T08:11:55;29.80;85.90
13322;DHT22;6730;46.248;6.930;2023-07-09T08:14:20;29.20;85.90
13322;DHT22;6730;46.248;6.930;2023-07-09T08:16:47;29.20;87.60
13322;DHT22;6730;46.248;6.930;2023-07-09T08:19:13;29.20;86.20
13322;DHT22;6730;46.248;6.930;2023-07-09T08:21:38;29.60;88.00
13322;DHT22;6730;46.248;6.930;2023-07-09T08:24:04;29.80;87.30
13322;DHT22;6730;46.248;6.930;2023-07-09T08:26:30;29.70;87.90
13322;DHT22;6730;46.248;6.930;2023-07-09T08:28:56;29.80;85.30
13322;DHT22;6730;46.248;6.930;2023-07-09T08:31:22;29.40;85.90
13322;DHT22;6730;46.248;6.930;2023-07-09T08:33:48;29.60;86.70
13322;DHT22;6730;46.248;6.930;2023-07-09T08:36:13;30.30;88.50
13322;DHT22;6730;46.248;6.930;2023-07-09T08:38:39;30.60;85.10
13322;DHT22;6730;46.248;6.930;2023-07-09T08:48:37;30.20;86.00
13322;DHT22;6730;46.248;6.930;2023-07-09T08:51:40;29.50;88.00
13322;DHT22;6730;46.248;6.930;2023-07-09T08:54:27;29.00;86.90
13322;DHT22;6730;46.248;6.930;2023-07-09T08:56:56;29.20;86.70
13322;DHT22;6730;46.248;6.930;2023-07-09T08:59:23;29.40;86.80
13322;DHT22;6730;46.248;6.930;2023-07-09T09:01:52;29.00;85.60
13322;DHT22;6730;46.248;6.930;2023-07-09T09:07:11;29.30;88.40
13322;DHT22;6730;46.248;6.930;2023-07-09T09:09:56;30.00;88.90
13322;DHT22;6730;46.248;6.930;2023-07-09T09:12:29;30.00;86.70
13322;DHT22;6730;46.248;6.930;2023-07-09T09:15:13;29.60;85.50
13322;DHT22;6730;46.248;6.930;2023-07-09T09:17:41;29.10;87.50
13322;DHT22;6730;46.248;6.930;2023-07-09T09:20:17;29.80;86.80
13322;DHT22;6730;46.248;6.930;2023-07-09T09:23:10;29.80;85.10
13322;DHT22;6730;46.248;6.930;2023-07-09T09:25:41;30.10;87.00
13322;DHT22;6730;46.248;6.930;2023-07-09T09:28:07;30.50;85.90
13322;DHT22;6730;46.248;6.930;2023-07-09T09:30:33;31.10;86.70
13322;DHT22;6730;46.248;6.930;2023-07-09T09:33:07;30.20;85.40
13322;DHT22;6730;46.248;6.930;2023-07-09T09:35:35;29.80;88.00
13322;DHT22;6730;46.248;6.930;2023-07-09T09:38:02;29.80;85.40
13322;DHT22;6730;46.248;6.930;2023-07-09T09:40:35;30.50;85.40
13322;DHT22;6730;46.248;6.930;2023-07-09T09:43:02;30.40;85.20
13322;DHT22;6730;46.248;6.930;2023-07-09T09:45:38;30.30;85.80
13322;DHT22;6730;46.248;6.930;2023-07-09T09:48:15;30.40;86.40
13322;DHT22;6730;46.248;6.930;2023-07-09T09:50:41;30.00;86.40
13322;DHT22;6730;46.248;6.930;2023-07-09T09:53:08;29.90;85.80
13322;DHT22;6730;46.248;6.930;2023-07-09T09:55:34;30.50;89.20
13322;DHT22;6730;46.248;6.930;2023-07-09T09:58:00;31.30;86.40
13322;DHT22;6730;46.248;6.930;2023-07-09T10:00:29;32.00;88.20
13322;DHT22;6730;46.248;6.930;2023-07-09T10:03:00;32.80;84.10
13322;DHT22;6730;46.248;6.930;2023-07-09T10:05:39;33.30;87.10
13322;DHT22;6730;46.248;6.930;2023-07-09T10:08:40;33.10;83.70
13322;DHT22;6730;46.248;6.930;2023-07-09T10:11:15;33.10;84.00
13322;DHT22;6730;46.248;6.930;2023-07-09T10:13:44;33.30;83.20
13322;DHT22;6730;46.248;6.930;2023-07-09T10:21:34;33.70;82.10
13322;DHT22;6730;46.248;6.930;2023-07-09T10:24:13;33.70;83.70
13322;DHT22;6730;46.248;6.930;2023-07-09T10:26:49;33.70;81.40
13322;DHT22;6730;46.248;6.930;2023-07-09T10:35:01;32.90;81.70
13322;DHT22;6730;46.248;6.930;2023-07-09T10:40:46;32.30;84.40
13322;DHT22;6730;46.248;6.930;2023-07-09T10:43:44;32.50;84.20
13322;DHT22;6730;46.248;6.930;2023-07-09T10:46:13;32.80;87.40
13322;DHT22;6730;46.248;6.930;2023-07-09T10:48:40;32.70;84.80
13322;DHT22;6730;46.248;6.930;2023-07-09T10:51:29;32.70;86.80
13322;DHT22;6730;46.248;6.930;2023-07-09T10:56:34;32.30;88.70
13322;DHT22;6730;46.248;6.930;2023-07-09T10:59:31;31.50;90.70
13322;DHT22;6730;46.248;6.930;2023-07-09T11:02:06;32.00;89.50
13322;DHT22;6730;46.248;6.930;2023-07-09T11:04:52;31.90;89.20
13322;DHT22;6730;46.248;6.930;2023-07-09T11:07:29;30.70;90.70
13322;DHT22;6730;46.248;6.930;2023-07-09T11:09:57;31.40;90.00
13322;DHT22;6730;46.248;6.930;2023-07-09T11:12:35;31.70;91.20
13322;DHT22;6730;46.248;6.930;2023-07-09T11:15:13;32.00;90.20
13322;DHT22;6730;46.248;6.930;2023-07-09T11:17:43;32.50;91.10
13322;DHT22;6730;46.248;6.930;2023-07-09T11:20:25;32.70;88.80
13322;DHT22;6730;46.248;6.930;2023-07-09T11:23:04;32.70;86.10
13322;DHT22;6730;46.248;6.930;2023-07-09T11:25:48;31.70;90.20
13322;DHT22;6730;46.248;6.930;2023-07-09T11:28:14;30.70;90.20
13322;DHT22;6730;46.248;6.930;2023-07-09T11:30:48;30.20;90.40
13322;DHT22;6730;46.248;6.930;2023-07-09T11:33:20;30.20;91.50
13322;DHT22;6730;46.248;6.930;2023-07-09T11:36:14;30.80;90.50
13322;DHT22;6730;46.248;6.930;2023-07-09T11:38:44;30.70;90.70
13322;DHT22;6730;46.248;6.930;2023-07-09T11:41:40;30.90;89.20
13322;DHT22;6730;46.248;6.930;2023-07-09T11:44:17;31.30;91.40
13322;DHT22;6730;46.248;6.930;2023-07-09T11:52:10;31.80;85.80
13322;DHT22;6730;46.248;6.930;2023-07-09T11:54:37;32.00;83.00
13322;DHT22;6730;46.248;6.930;2023-07-09T11:57:04;32.00;82.50
13322;DHT22;6730;46.248;6.930;2023-07-09T11:59:38;31.80;79.10
13322;DHT22;6730;46.248;6.930;2023-07-09T12:02:04;31.40;81.50
13322;DHT22;6730;46.248;6.930;2023-07-09T12:04:34;31.20;81.80
13322;DHT22;6730;46.248;6.930;2023-07-09T12:07:01;30.90;81.40
13322;DHT22;6730;46.248;6.930;2023-07-09T12:09:41;30.50;82.60
13322;DHT22;6730;46.248;6.930;2023-07-09T12:12:25;29.80;80.90
13322;DHT22;6730;46.248;6.930;2023-07-09T12:14:51;29.40;82.00
13322;DHT22;6730;46.248;6.930;2023-07-09T12:17:18;29.10;82.50
13322;DHT22;6730;46.248;6.930;2023-07-09T12:19:44;29.10;83.60
13322;DHT22;6730;46.248;6.930;2023-07-09T12:22:17;29.60;85.10
13322;DHT22;6730;46.248;6.930;2023-07-09T12:24:44;30.10;84.60
13322;DHT22;6730;46.248;6.930;2023-07-09T12:27:25;30.10;84.60
13322;DHT22;6730;46.248;6.930;2023-07-09T12:29:54;30.20;82.10
13322;DHT22;6730;46.248;6.930;2023-07-09T12:32:20;29.80;85.60
13322;DHT22;6730;46.248;6.930;2023-07-09T12:34:52;30.00;85.50
13322;DHT22;6730;46.248;6.930;2023-07-09T12:37:19;29.40;84.30
13322;DHT22;6730;46.248;6.930;2023-07-09T12:39:47;29.30;85.80
13322;DHT22;6730;46.248;6.930;2023-07-09T12:42:20;29.50;84.70
13322;DHT22;6730;46.248;6.930;2023-07-09T12:44:49;29.60;86.70
13322;DHT22;6730;46.248;6.930;2023-07-09T12:47:16;29.90;87.30
13322;DHT22;6730;46.248;6.930;2023-07-09T12:49:44;30.20;88.00
13322;DHT22;6730;46.248;6.930;2023-07-09T12:52:18;30.20;88.10
13322;DHT22;6730;46.248;6.930;2023-07-09T12:54:55;30.00;88.10
13322;DHT22;6730;46.248;6.930;2023-07-09T12:57:23;30.00;89.10
13322;DHT22;6730;46.248;6.930;2023-07-09T12:59:49;29.60;88.70
13322;DHT22;6730;46.248;6.930;2023-07-09T13:02:17;29.50;87.90
13322;DHT22;6730;46.248;6.930;2023-07-09T13:04:44;29.40;88.20
13322;DHT22;6730;46.248;6.930;2023-07-09T13:07:26;29.90;86.90
13322;DHT22;6730;46.248;6.930;2023-07-09T13:09:53;30.20;87.20
13322;DHT22;6730;46.248;6.930;2023-07-09T13:12:21;30.00;86.90
13322;DHT22;6730;46.248;6.930;2023-07-09T13:14:54;29.60;86.80
13322;DHT22;6730;46.248;6.930;2023-07-09T13:17:20;29.50;86.90
13322;DHT22;6730;46.248;6.930;2023-07-09T13:19:45;29.30;86.50
13322;DHT22;6730;46.248;6.930;2023-07-09T13:22:16;29.60;87.20
13322;DHT22;6730;46.248;6.930;2023-07-09T13:24:45;29.60;86.70
13322;DHT22;6730;46.248;6.930;2023-07-09T13:27:14;29.70;85.80
13322;DHT22;6730;46.248;6.930;2023-07-09T13:29:41;29.80;86.20
13322;DHT22;6730;46.248;6.930;2023-07-09T13:32:11;30.10;86.90
13322;DHT22;6730;46.248;6.930;2023-07-09T13:34:38;30.30;84.50
13322;DHT22;6730;46.248;6.930;2023-07-09T13:37:05;30.40;83.10
13322;DHT22;6730;46.248;6.930;2023-07-09T13:39:31;30.20;86.40
13322;DHT22;6730;46.248;6.930;2023-07-09T13:41:57;29.90;86.80
13322;DHT22;6730;46.248;6.930;2023-07-09T13:44:28;29.50;86.40
13322;DHT22;6730;46.248;6.930;2023-07-09T13:46:56;29.60;88.90
13322;DHT22;6730;46.248;6.930;2023-07-09T13:49:24;29.90;86.20
13322;DHT22;6730;46.248;6.930;2023-07-09T13:51:54;29.90;85.90
13322;DHT22;6730;46.248;6.930;2023-07-09T13:54:31;30.00;85.10
13322;DHT22;6730;46.248;6.930;2023-07-09T13:57:01;30.30;86.60
13322;DHT22;6730;46.248;6.930;2023-07-09T13:59:28;31.00;85.40
13322;DHT22;6730;46.248;6.930;2023-07-09T14:01:56;31.50;84.70
13322;DHT22;6730;46.248;6.930;2023-07-09T14:04:22;31.10;84.00
13322;DHT22;6730;46.248;6.930;2023-07-09T14:06:49;31.30;85.00
13322;DHT22;6730;46.248;6.930;2023-07-09T14:09:15;31.60;85.00
13322;DHT22;6730;46.248;6.930;2023-07-09T14:11:50;31.70;85.10
13322;DHT22;6730;46.248;6.930;2023-07-09T14:14:25;31.00;84.70
13322;DHT22;6730;46.248;6.930;2023-07-09T14:16:53;30.50;86.20
13322;DHT22;6730;46.248;6.930;2023-07-09T14:19:21;30.70;83.80
13322;DHT22;6730;46.248;6.930;2023-07-09T14:21:47;31.00;85.00
13322;DHT22;6730;46.248;6.930;2023-07-09T14:26:44;31.40;84.30
13322;DHT22;6730;46.248;6.930;2023-07-09T14:29:12;31.60;85.70
13322;DHT22;6730;46.248;6.930;2023-07-09T14:31:39;31.80;84.80
13322;DHT22;6730;46.248;6.930;2023-07-09T14:34:25;32.00;85.00
13322;DHT22;6730;46.248;6.930;2023-07-09T14:36:53;32.30;84.10
13322;DHT22;6730;46.248;6.930;2023-07-09T14:39:19;31.90;83.40
13322;DHT22;6730;46.248;6.930;2023-07-09T14:41:46;31.60;84.40
13322;DHT22;6730;46.248;6.930;2023-07-09T14:46:48;30.50;85.80
13322;DHT22;6730;46.248;6.930;2023-07-09T14:49:16;30.00;84.80
13322;DHT22;6730;46.248;6.930;2023-07-09T14:51:41;29.60;85.90
13322;DHT22;6730;46.248;6.930;2023-07-09T14:54:21;29.60;87.10
13322;DHT22;6730;46.248;6.930;2023-07-09T14:56:51;29.70;86.20
13322;DHT22;6730;46.248;6.930;2023-07-09T14:59:17;29.70;87.70
13322;DHT22;6730;46.248;6.930;2023-07-09T15:01:44;29.90;86.70
13322;DHT22;6730;46.248;6.930;2023-07-09T15:06:50;30.10;85.80
13322;DHT22;6730;46.248;6.930;2023-07-09T15:09:19;29.90;86.60
13322;DHT22;6730;46.248;6.930;2023-07-09T15:12:07;30.00;87.00
13322;DHT22;6730;46.248;6.930;2023-07-09T15:14:37;29.90;86.00
13322;DHT22;6730;46.248;6.930;2023-07-09T15:17:03;29.90;87.20
13322;DHT22;6730;46.248;6.930;2023-07-09T15:19:28;30.10;89.20
13322;DHT22;6730;46.248;6.930;2023-07-09T15:21:54;30.40;90.30
13322;DHT22;6730;46.248;6.930;2023-07-09T15:24:27;30.80;90.00
13322;DHT22;6730;46.248;6.930;2023-07-09T15:26:55;31.30;89.70
13322;DHT22;6730;46.248;6.930;2023-07-09T15:29:22;31.50;89.00
13322;DHT22;6730;46.248;6.930;2023-07-09T15:31:48;31.60;89.30
13322;DHT22;6730;46.248;6.930;2023-07-09T15:34:15;32.00;87.90
13322;DHT22;6730;46.248;6.930;2023-07-09T15:36:48;32.00;87.90
13322;DHT22;6730;46.248;6.930;2023-07-09T15:39:15;31.90;89.40
13322;DHT22;6730;46.248;6.930;2023-07-09T15:41:40;31.80;90.00
13322;DHT22;6730;46.248;6.930;2023-07-09T15:44:14;31.80;90.20
13322;DHT22;6730;46.248;6.930;2023-07-09T15:46:42;31.60;90.20
13322;DHT22;6730;46.248;6.930;2023-07-09T15:49:13;31.60;89.00
13322;DHT22;6730;46.248;6.930;2023-07-09T15:51:39;31.80;88.00
13322;DHT22;6730;46.248;6.930;2023-07-09T15:54:15;31.90;87.80
13322;DHT22;6730;46.248;6.930;2023-07-09T15:56:41;31.70;88.70
13322;DHT22;6730;46.248;6.930;2023-07-09T15:59:29;31.70;87.00
13322;DHT22;6730;46.248;6.930;2023-07-09T16:01:56;31.80;86.50
13322;DHT22;6730;46.248;6.930;2023-07-09T16:04:22;31.70;87.40
13322;DHT22;6730;46.248;6.930;2023-07-09T16:06:48;31.70;87.00
13322;DHT22;6730;46.248;6.930;2023-07-09T16:09:14;31.90;87.50
13322;DHT22;6730;46.248;6.930;2023-07-09T16:11:52;32.00;86.40
13322;DHT22;6730;46.248;6.930;2023-07-09T16:14:27;31.90;87.00
13322;DHT22;6730;46.248;6.930;2023-07-09T16:16:54;31.50;89.50
13322;DHT22;6730;46.248;6.930;2023-07-09T16:19:22;31.10;89.10
13322;DHT22;6730;46.248;6.930;2023-07-09T16:21:50;31.30;87.60
13322;DHT22;6730;46.248;6.930;2023-07-09T16:24:30;31.50;87.10
13322;DHT22;6730;46.248;6.930;2023-07-09T16:27:01;31.50;87.20
13322;DHT22;6730;46.248;6.930;2023-07-09T16:29:30;31.50;88.20
13322;DHT22;6730;46.248;6.930;2023-07-09T16:31:57;31.20;88.50
13322;DHT22;6730;46.248;6.930;2023-07-09T16:34:24;31.00;88.50
13322;DHT22;6730;46.248;6.930;2023-07-09T16:36:50;31.00;88.30
13322;DHT22;6730;46.248;6.930;2023-07-09T16:39:40;31.30;88.20
13322;DHT22;6730;46.248;6.930;2023-07-09T16:42:14;31.10;88.30